sensor_id;sensor_type;location;lat;lon;timestamp;temperature;humidity
18175;DHT22;9212;50.894;16.714;2022-08-21T00:03:18;18.00;99.90
18175;DHT22;9212;50.894;16.714;2022-08-21T00:05:48;17.80;99.90
18175;DHT22;9212;50.894;16.714;2022-08-21T00:10:44;17.80;99.90
18175;DHT22;9212;50.894;16.714;2022-08-21T00:13:14;17.80;99.90
18175;DHT22;9212;50.894;16.714;2022-08-21T00:18:10;17.70;99.90
18175;DHT22;9212;50.894;16.714;2022-08-21T00:30:29;17.30;99.90
18175;DHT22;9212;50.894;16.714;2022-08-21T00:32:57;17.50;99.90
18175;DHT22;9212;50.894;16.714;2022-08-21T00:35:27;17.50;99.90
18175;DHT22;9212;50.894;16.714;2022-08-21T00:40:25;18.20;99.90
18175;DHT22;9212;50.894;16.714;2022-08-21T00:47:49;17.40;99.90
18175;DHT22;9212;50.894;16.714;2022-08-21T00:50:17;17.50;99.90
18175;DHT22;9212;50.894;16.714;2022-08-21T00:52:45;17.40;99.90
18175;DHT22;9212;50.894;16.714;2022-08-21T00:55:13;17.40;99.90
18175;DHT22;9212;50.894;16.714;2022-08-21T00:57:43;17.00;99.90
18175;DHT22;9212;50.894;16.714;2022-08-21T01:00:14;17.20;99.90
18175;DHT22;9212;50.894;16.714;2022-08-21T01:02:43;17.30;99.90
18175;DHT22;9212;50.894;16.714;2022-08-21T01:05:12;17.20;99.90
18175;DHT22;9212;50.894;16.714;2022-08-21T01:07:40;17.10;99.90
18175;DHT22;9212;50.894;16.714;2022-08-21T01:10:08;17.40;99.90
18175;DHT22;9212;50.894;16.714;2022-08-21T01:12:36;17.20;99.90
18175;DHT22;9212;50.894;16.714;2022-08-21T01:15:05;17.20;99.90
18175;DHT22;9212;50.894;16.714;2022-08-21T01:17:33;17.10;99.90
18175;DHT22;9212;50.894;16.714;2022-08-21T01:20:03;17.20;99.90
18175;DHT22;9212;50.894;16.714;2022-08-21T01:22:33;17.10;99.90
18175;DHT22;9212;50.894;16.714;2022-08-21T01:29:57;17.20;99.90
18175;DHT22;9212;50.894;16.714;2022-08-21T01:32:25;17.10;99.90
18175;DHT22;9212;50.894;16.714;2022-08-21T01:37:20;17.00;99.90
18175;DHT22;9212;50.894;16.714;2022-08-21T01:39:49;14.80;99.90
18175;DHT22;9212;50.894;16.714;2022-08-21T01:42:16;17.00;99.90
18175;DHT22;9212;50.894;16.714;2022-08-21T01:47:12;16.80;99.90
18175;DHT22;9212;50.894;16.714;2022-08-21T01:54:36;16.80;99.90
18175;DHT22;9212;50.894;16.714;2022-08-21T01:57:04;16.70;99.90
18175;DHT22;9212;50.894;16.714;2022-08-21T02:04:27;16.60;99.90
18175;DHT22;9212;50.894;16.714;2022-08-21T02:14:18;16.50;99.90
18175;DHT22;9212;50.894;16.714;2022-08-21T02:19:14;16.40;99.90
18175;DHT22;9212;50.894;16.714;2022-08-21T02:21:41;16.40;99.90
18175;DHT22;9212;50.894;16.714;2022-08-21T02:24:09;16.40;99.90
18175;DHT22;9212;50.894;16.714;2022-08-21T02:29:04;16.40;99.90
18175;DHT22;9212;50.894;16.714;2022-08-21T02:31:33;16.40;99.90
18175;DHT22;9212;50.894;16.714;2022-08-21T02:41:23;16.30;99.90
18175;DHT22;9212;50.894;16.714;2022-08-21T02:46:19;16.30;99.90
18175;DHT22;9212;50.894;16.714;2022-08-21T02:51:17;16.20;99.90
18175;DHT22;9212;50.894;16.714;2022-08-21T02:53:46;16.20;99.90
18175;DHT22;9212;50.894;16.714;2022-08-21T02:56:15;16.20;99.90
18175;DHT22;9212;50.894;16.714;2022-08-21T02:58:47;16.20;99.90
18175;DHT22;9212;50.894;16.714;2022-08-21T03:03:44;16.20;99.90
18175;DHT22;9212;50.894;16.714;2022-08-21T03:06:14;16.20;99.90
18175;DHT22;9212;50.894;16.714;2022-08-21T03:08:42;16.30;99.90
18175;DHT22;9212;50.894;16.714;2022-08-21T03:23:29;16.20;99.90
18175;DHT22;9212;50.894;16.714;2022-08-21T03:30:53;16.20;99.90
18175;DHT22;9212;50.894;16.714;2022-08-21T03:35:55;16.20;99.90
18175;DHT22;9212;50.894;16.714;2022-08-21T03:40:52;16.20;99.90
18175;DHT22;9212;50.894;16.714;2022-08-21T03:50:43;16.30;99.90
18175;DHT22;9212;50.894;16.714;2022-08-21T03:53:13;16.30;99.90
18175;DHT22;9212;50.894;16.714;2022-08-21T03:58:10;16.30;99.90
18175;DHT22;9212;50.894;16.714;2022-08-21T04:08:02;16.20;99.90
18175;DHT22;9212;50.894;16.714;2022-08-21T04:10:31;16.30;99.90
18175;DHT22;9212;50.894;16.714;2022-08-21T04:15:29;16.30;99.90
18175;DHT22;9212;50.894;16.714;2022-08-21T04:20:23;16.30;99.90
18175;DHT22;9212;50.894;16.714;2022-08-21T04:22:51;16.30;99.90
18175;DHT22;9212;50.894;16.714;2022-08-21T04:25:20;16.30;99.90
18175;DHT22;9212;50.894;16.714;2022-08-21T04:27:47;16.30;99.90
18175;DHT22;9212;50.894;16.714;2022-08-21T04:30:15;16.40;99.90
18175;DHT22;9212;50.894;16.714;2022-08-21T04:32:45;16.40;99.90
18175;DHT22;9212;50.894;16.714;2022-08-21T04:35:15;16.40;99.90
18175;DHT22;9212;50.894;16.714;2022-08-21T04:40:12;17.60;99.90
18175;DHT22;9212;50.894;16.714;2022-08-21T04:42:43;16.50;99.90
18175;DHT22;9212;50.894;16.714;2022-08-21T04:45:17;16.40;99.90
18175;DHT22;9212;50.894;16.714;2022-08-21T04:47:48;16.40;99.90
18175;DHT22;9212;50.894;16.714;2022-08-21T04:52:43;16.40;99.90
18175;DHT22;9212;50.894;16.714;2022-08-21T04:57:39;16.40;99.90
18175;DHT22;9212;50.894;16.714;2022-08-21T05:00:08;16.40;99.90
18175;DHT22;9212;50.894;16.714;2022-08-21T05:02:39;16.40;99.90
18175;DHT22;9212;50.894;16.714;2022-08-21T05:05:09;16.30;99.90
18175;DHT22;9212;50.894;16.714;2022-08-21T05:07:37;16.40;99.90
18175;DHT22;9212;50.894;16.714;2022-08-21T05:10:05;16.30;99.90
18175;DHT22;9212;50.894;16.714;2022-08-21T05:12:34;16.40;99.90
18175;DHT22;9212;50.894;16.714;2022-08-21T05:22:25;16.50;99.90
18175;DHT22;9212;50.894;16.714;2022-08-21T05:37:11;16.40;99.90
18175;DHT22;9212;50.894;16.714;2022-08-21T05:39:39;16.40;99.90
18175;DHT22;9212;50.894;16.714;2022-08-21T05:47:05;16.30;99.90
18175;DHT22;9212;50.894;16.714;2022-08-21T05:49:33;16.40;99.90
18175;DHT22;9212;50.894;16.714;2022-08-21T05:56:56;16.40;99.90
18175;DHT22;9212;50.894;16.714;2022-08-21T06:14:11;16.30;99.90
18175;DHT22;9212;50.894;16.714;2022-08-21T06:31:27;15.90;99.90
18175;DHT22;9212;50.894;16.714;2022-08-21T06:33:55;16.00;99.90
18175;DHT22;9212;50.894;16.714;2022-08-21T06:48:40;16.10;99.90
18175;DHT22;9212;50.894;16.714;2022-08-21T07:03:30;15.70;99.90
18175;DHT22;9212;50.894;16.714;2022-08-21T07:05:59;15.70;99.90
18175;DHT22;9212;50.894;16.714;2022-08-21T07:08:27;15.70;99.90
18175;DHT22;9212;50.894;16.714;2022-08-21T07:10:56;15.70;99.90
18175;DHT22;9212;50.894;16.714;2022-08-21T07:13:24;15.60;99.90
18175;DHT22;9212;50.894;16.714;2022-08-21T07:20:46;15.40;99.90
18175;DHT22;9212;50.894;16.714;2022-08-21T07:40:39;15.30;99.90
18175;DHT22;9212;50.894;16.714;2022-08-21T07:50:34;15.50;99.90
18175;DHT22;9212;50.894;16.714;2022-08-21T07:57:57;15.30;99.90
18175;DHT22;9212;50.894;16.714;2022-08-21T08:00:27;15.30;99.90
18175;DHT22;9212;50.894;16.714;2022-08-21T08:05:26;15.30;99.90
18175;DHT22;9212;50.894;16.714;2022-08-21T08:07:54;15.30;99.90
18175;DHT22;9212;50.894;16.714;2022-08-21T08:10:22;15.30;99.90
18175;DHT22;9212;50.894;16.714;2022-08-21T08:12:50;15.30;99.90
18175;DHT22;9212;50.894;16.714;2022-08-21T08:15:23;15.30;99.90
18175;DHT22;9212;50.894;16.714;2022-08-21T08:20:18;15.20;99.90
18175;DHT22;9212;50.894;16.714;2022-08-21T08:30:11;15.30;99.90
18175;DHT22;9212;50.894;16.714;2022-08-21T08:32:40;15.30;99.90
18175;DHT22;9212;50.894;16.714;2022-08-21T08:35:10;15.20;99.90
18175;DHT22;9212;50.894;16.714;2022-08-21T08:37:38;15.60;99.90
18175;DHT22;9212;50.894;16.714;2022-08-21T08:42:35;15.20;99.90
18175;DHT22;9212;50.894;16.714;2022-08-21T08:45:04;15.30;99.90
18175;DHT22;9212;50.894;16.714;2022-08-21T08:47:36;15.30;99.90
18175;DHT22;9212;50.894;16.714;2022-08-21T08:50:08;15.30;99.90
18175;DHT22;9212;50.894;16.714;2022-08-21T08:52:41;15.70;99.90
18175;DHT22;9212;50.894;16.714;2022-08-21T08:55:14;15.50;99.90
18175;DHT22;9212;50.894;16.714;2022-08-21T08:57:44;15.70;99.90
18175;DHT22;9212;50.894;16.714;2022-08-21T09:00:14;15.60;99.90
18175;DHT22;9212;50.894;16.714;2022-08-21T09:02:43;15.70;99.90
18175;DHT22;9212;50.894;16.714;2022-08-21T09:05:19;15.80;99.90
18175;DHT22;9212;50.894;16.714;2022-08-21T09:10:57;15.90;99.90
18175;DHT22;9212;50.894;16.714;2022-08-21T09:13:35;15.90;99.90
18175;DHT22;9212;50.894;16.714;2022-08-21T09:16:10;15.90;99.90
18175;DHT22;9212;50.894;16.714;2022-08-21T09:18:43;16.00;99.90
18175;DHT22;9212;50.894;16.714;2022-08-21T09:21:22;16.00;99.90
18175;DHT22;9212;50.894;16.714;2022-08-21T09:24:01;15.90;99.90
18175;DHT22;9212;50.894;16.714;2022-08-21T09:26:31;15.90;99.90
18175;DHT22;9212;50.894;16.714;2022-08-21T09:31:31;15.80;99.90
18175;DHT22;9212;50.894;16.714;2022-08-21T09:34:00;15.90;99.90
18175;DHT22;9212;50.894;16.714;2022-08-21T09:36:36;15.90;99.90
18175;DHT22;9212;50.894;16.714;2022-08-21T09:39:04;16.00;99.90
18175;DHT22;9212;50.894;16.714;2022-08-21T09:41:34;16.00;99.90
18175;DHT22;9212;50.894;16.714;2022-08-21T09:44:02;16.00;99.90
18175;DHT22;9212;50.894;16.714;2022-08-21T09:48:59;16.00;99.90
18175;DHT22;9212;50.894;16.714;2022-08-21T09:51:30;16.00;99.90
18175;DHT22;9212;50.894;16.714;2022-08-21T09:54:14;16.10;99.90
18175;DHT22;9212;50.894;16.714;2022-08-21T09:56:54;16.10;99.90
18175;DHT22;9212;50.894;16.714;2022-08-21T10:04:51;16.00;99.90
18175;DHT22;9212;50.894;16.714;2022-08-21T10:07:21;16.00;99.90
18175;DHT22;9212;50.894;16.714;2022-08-21T10:10:00;16.00;99.90
18175;DHT22;9212;50.894;16.714;2022-08-21T10:12:33;16.10;99.90
18175;DHT22;9212;50.894;16.714;2022-08-21T10:15:07;16.10;99.90
18175;DHT22;9212;50.894;16.714;2022-08-21T10:17:52;16.00;99.90
18175;DHT22;9212;50.894;16.714;2022-08-21T10:20:24;15.90;99.90
18175;DHT22;9212;50.894;16.714;2022-08-21T10:23:18;16.00;99.90
18175;DHT22;9212;50.894;16.714;2022-08-21T10:25:52;16.00;99.90
18175;DHT22;9212;50.894;16.714;2022-08-21T10:28:28;16.20;99.90
18175;DHT22;9212;50.894;16.714;2022-08-21T10:31:05;16.30;99.90
18175;DHT22;9212;50.894;16.714;2022-08-21T10:33:43;16.40;99.90
18175;DHT22;9212;50.894;16.714;2022-08-21T10:36:17;16.40;99.90
18175;DHT22;9212;50.894;16.714;2022-08-21T10:38:59;16.30;99.90
18175;DHT22;9212;50.894;16.714;2022-08-21T10:41:39;16.30;99.90
18175;DHT22;9212;50.894;16.714;2022-08-21T10:44:16;16.30;99.90
18175;DHT22;9212;50.894;16.714;2022-08-21T10:46:51;16.50;99.90
18175;DHT22;9212;50.894;16.714;2022-08-21T10:49:25;16.50;99.90
18175;DHT22;9212;50.894;16.714;2022-08-21T10:52:02;16.30;99.90
18175;DHT22;9212;50.894;16.714;2022-08-21T10:54:44;16.60;99.90
18175;DHT22;9212;50.894;16.714;2022-08-21T10:57:22;16.70;99.90
18175;DHT22;9212;50.894;16.714;2022-08-21T10:59:57;16.80;99.90
18175;DHT22;9212;50.894;16.714;2022-08-21T11:02:30;16.90;99.90
18175;DHT22;9212;50.894;16.714;2022-08-21T11:05:02;16.80;99.90
18175;DHT22;9212;50.894;16.714;2022-08-21T11:07:35;16.70;99.90
18175;DHT22;9212;50.894;16.714;2022-08-21T11:10:08;16.70;99.90
18175;DHT22;9212;50.894;16.714;2022-08-21T11:12:41;16.80;99.90
18175;DHT22;9212;50.894;16.714;2022-08-21T11:15:22;16.90;99.90
18175;DHT22;9212;50.894;16.714;2022-08-21T11:17:54;16.80;99.90
18175;DHT22;9212;50.894;16.714;2022-08-21T11:20:30;16.80;99.90
18175;DHT22;9212;50.894;16.714;2022-08-21T11:23:04;16.80;99.90
18175;DHT22;9212;50.894;16.714;2022-08-21T11:25:36;16.80;99.90
18175;DHT22;9212;50.894;16.714;2022-08-21T11:28:09;16.90;99.90
18175;DHT22;9212;50.894;16.714;2022-08-21T11:30:46;17.00;99.90
18175;DHT22;9212;50.894;16.714;2022-08-21T11:33:26;17.00;99.90
18175;DHT22;9212;50.894;16.714;2022-08-21T11:36:00;17.10;99.90
18175;DHT22;9212;50.894;16.714;2022-08-21T11:38:35;17.10;99.90
18175;DHT22;9212;50.894;16.714;2022-08-21T11:41:20;17.20;99.90
18175;DHT22;9212;50.894;16.714;2022-08-21T11:43:53;17.20;99.90
18175;DHT22;9212;50.894;16.714;2022-08-21T11:46:29;17.20;99.90
18175;DHT22;9212;50.894;16.714;2022-08-21T11:57:52;17.30;99.90
18175;DHT22;9212;50.894;16.714;2022-08-21T12:05:55;17.50;99.90
18175;DHT22;9212;50.894;16.714;2022-08-21T12:08:29;17.50;99.90
18175;DHT22;9212;50.894;16.714;2022-08-21T12:11:04;17.60;99.90
18175;DHT22;9212;50.894;16.714;2022-08-21T12:13:34;17.60;99.90
18175;DHT22;9212;50.894;16.714;2022-08-21T12:16:08;17.40;99.90
18175;DHT22;9212;50.894;16.714;2022-08-21T12:21:17;17.60;99.90
18175;DHT22;9212;50.894;16.714;2022-08-21T12:23:48;17.60;99.90
18175;DHT22;9212;50.894;16.714;2022-08-21T12:26:27;17.50;99.90
18175;DHT22;9212;50.894;16.714;2022-08-21T12:29:16;17.70;99.90
18175;DHT22;9212;50.894;16.714;2022-08-21T12:31:56;17.70;99.90
18175;DHT22;9212;50.894;16.714;2022-08-21T12:34:30;17.80;99.90
18175;DHT22;9212;50.894;16.714;2022-08-21T12:37:01;17.70;99.90
18175;DHT22;9212;50.894;16.714;2022-08-21T12:39:31;17.80;99.90
18175;DHT22;9212;50.894;16.714;2022-08-21T12:42:00;17.70;99.90
18175;DHT22;9212;50.894;16.714;2022-08-21T12:44:36;17.80;99.90
18175;DHT22;9212;50.894;16.714;2022-08-21T12:47:13;17.80;99.90
18175;DHT22;9212;50.894;16.714;2022-08-21T12:49:53;17.80;99.90
18175;DHT22;9212;50.894;16.714;2022-08-21T12:52:23;18.10;99.90
18175;DHT22;9212;50.894;16.714;2022-08-21T12:54:51;18.10;99.90
18175;DHT22;9212;50.894;16.714;2022-08-21T12:57:20;18.10;99.90
18175;DHT22;9212;50.894;16.714;2022-08-21T12:59:52;18.20;99.90
18175;DHT22;9212;50.894;16.714;2022-08-21T13:02:25;18.20;99.90
18175;DHT22;9212;50.894;16.714;2022-08-21T13:04:54;18.10;99.90
18175;DHT22;9212;50.894;16.714;2022-08-21T13:07:27;18.30;99.90
18175;DHT22;9212;50.894;16.714;2022-08-21T13:09:57;18.20;99.90
18175;DHT22;9212;50.894;16.714;2022-08-21T13:12:25;18.10;99.90
18175;DHT22;9212;50.894;16.714;2022-08-21T13:14:56;18.00;99.90
18175;DHT22;9212;50.894;16.714;2022-08-21T13:17:25;17.90;99.90
18175;DHT22;9212;50.894;16.714;2022-08-21T13:19:54;18.10;99.90
18175;DHT22;9212;50.894;16.714;2022-08-21T13:22:23;17.90;99.90
18175;DHT22;9212;50.894;16.714;2022-08-21T13:27:20;17.80;99.90
18175;DHT22;9212;50.894;16.714;2022-08-21T13:32:22;17.80;99.90
18175;DHT22;9212;50.894;16.714;2022-08-21T13:34:54;17.80;99.90
18175;DHT22;9212;50.894;16.714;2022-08-21T13:37:22;17.90;99.90
18175;DHT22;9212;50.894;16.714;2022-08-21T13:39:52;17.90;99.90
18175;DHT22;9212;50.894;16.714;2022-08-21T13:44:52;17.90;99.90
18175;DHT22;9212;50.894;16.714;2022-08-21T13:49:51;18.40;99.90
18175;DHT22;9212;50.894;16.714;2022-08-21T13:52:21;18.00;99.90
18175;DHT22;9212;50.894;16.714;2022-08-21T13:54:53;18.10;99.90
18175;DHT22;9212;50.894;16.714;2022-08-21T13:57:26;18.00;99.90
18175;DHT22;9212;50.894;16.714;2022-08-21T14:00:10;18.30;99.90
18175;DHT22;9212;50.894;16.714;2022-08-21T14:02:39;18.10;99.90
18175;DHT22;9212;50.894;16.714;2022-08-21T14:05:10;18.10;99.90
18175;DHT22;9212;50.894;16.714;2022-08-21T14:07:43;18.40;99.90
18175;DHT22;9212;50.894;16.714;2022-08-21T14:10:14;18.70;99.90
18175;DHT22;9212;50.894;16.714;2022-08-21T14:12:45;18.20;99.90
18175;DHT22;9212;50.894;16.714;2022-08-21T14:15:13;18.20;99.90
18175;DHT22;9212;50.894;16.714;2022-08-21T14:20:11;18.20;99.90
18175;DHT22;9212;50.894;16.714;2022-08-21T14:22:40;18.10;99.90
18175;DHT22;9212;50.894;16.714;2022-08-21T14:25:13;18.30;99.90
18175;DHT22;9212;50.894;16.714;2022-08-21T14:27:44;18.10;99.90
18175;DHT22;9212;50.894;16.714;2022-08-21T14:30:18;18.10;99.90
18175;DHT22;9212;50.894;16.714;2022-08-21T14:32:46;18.10;99.90
18175;DHT22;9212;50.894;16.714;2022-08-21T14:35:13;18.20;99.90
18175;DHT22;9212;50.894;16.714;2022-08-21T14:37:43;18.10;99.90
18175;DHT22;9212;50.894;16.714;2022-08-21T14:40:12;18.10;99.90
18175;DHT22;9212;50.894;16.714;2022-08-21T14:42:40;17.90;99.90
18175;DHT22;9212;50.894;16.714;2022-08-21T14:45:12;18.00;99.90
18175;DHT22;9212;50.894;16.714;2022-08-21T14:47:40;17.80;99.90
18175;DHT22;9212;50.894;16.714;2022-08-21T14:50:08;17.80;99.90
18175;DHT22;9212;50.894;16.714;2022-08-21T14:55:03;18.00;99.90
18175;DHT22;9212;50.894;16.714;2022-08-21T14:57:32;17.30;99.90
18175;DHT22;9212;50.894;16.714;2022-08-21T15:00:00;17.90;99.90
18175;DHT22;9212;50.894;16.714;2022-08-21T15:02:27;17.80;99.90
18175;DHT22;9212;50.894;16.714;2022-08-21T15:04:54;17.90;99.90
18175;DHT22;9212;50.894;16.714;2022-08-21T15:07:21;17.80;99.90
18175;DHT22;9212;50.894;16.714;2022-08-21T15:09:48;17.70;99.90
18175;DHT22;9212;50.894;16.714;2022-08-21T15:12:15;17.60;99.90
18175;DHT22;9212;50.894;16.714;2022-08-21T15:14:43;17.60;99.90
18175;DHT22;9212;50.894;16.714;2022-08-21T15:17:10;17.60;99.90
18175;DHT22;9212;50.894;16.714;2022-08-21T15:19:38;17.60;99.90
18175;DHT22;9212;50.894;16.714;2022-08-21T15:22:05;17.60;99.90
18175;DHT22;9212;50.894;16.714;2022-08-21T15:27:01;17.50;99.90
18175;DHT22;9212;50.894;16.714;2022-08-21T15:29:29;17.50;99.90
18175;DHT22;9212;50.894;16.714;2022-08-21T15:32:01;17.40;99.90
18175;DHT22;9212;50.894;16.714;2022-08-21T15:34:30;17.50;99.90
18175;DHT22;9212;50.894;16.714;2022-08-21T15:36:58;17.40;99.90
18175;DHT22;9212;50.894;16.714;2022-08-21T15:39:26;17.50;99.90
18175;DHT22;9212;50.894;16.714;2022-08-21T15:44:20;17.50;99.90
18175;DHT22;9212;50.894;16.714;2022-08-21T15:49:16;17.50;99.90
18175;DHT22;9212;50.894;16.714;2022-08-21T15:54:10;17.50;99.90
18175;DHT22;9212;50.894;16.714;2022-08-21T15:56:43;17.70;99.90
18175;DHT22;9212;50.894;16.714;2022-08-21T15:59:14;17.60;99.90
18175;DHT22;9212;50.894;16.714;2022-08-21T16:06:38;17.20;99.90
18175;DHT22;9212;50.894;16.714;2022-08-21T16:09:05;17.70;99.90
18175;DHT22;9212;50.894;16.714;2022-08-21T16:11:32;17.40;99.90
18175;DHT22;9212;50.894;16.714;2022-08-21T16:13:59;17.50;99.90
18175;DHT22;9212;50.894;16.714;2022-08-21T16:16:26;17.60;99.90
18175;DHT22;9212;50.894;16.714;2022-08-21T16:18:54;17.50;99.90
18175;DHT22;9212;50.894;16.714;2022-08-21T16:23:50;17.50;99.90
18175;DHT22;9212;50.894;16.714;2022-08-21T16:28:45;17.50;99.90
18175;DHT22;9212;50.894;16.714;2022-08-21T16:31:14;17.60;99.90
18175;DHT22;9212;50.894;16.714;2022-08-21T16:33:43;17.50;99.90
18175;DHT22;9212;50.894;16.714;2022-08-21T16:36:14;17.60;99.90
18175;DHT22;9212;50.894;16.714;2022-08-21T16:41:12;17.60;99.90
18175;DHT22;9212;50.894;16.714;2022-08-21T16:43:40;17.50;99.90
18175;DHT22;9212;50.894;16.714;2022-08-21T16:46:09;17.50;99.90
18175;DHT22;9212;50.894;16.714;2022-08-21T16:48:40;17.40;99.90
18175;DHT22;9212;50.894;16.714;2022-08-21T16:53:38;17.40;99.90
18175;DHT22;9212;50.894;16.714;2022-08-21T16:56:10;17.50;99.90
18175;DHT22;9212;50.894;16.714;2022-08-21T16:58:39;17.40;99.90
18175;DHT22;9212;50.894;16.714;2022-08-21T17:01:09;17.50;99.90
18175;DHT22;9212;50.894;16.714;2022-08-21T17:03:38;17.40;99.90
18175;DHT22;9212;50.894;16.714;2022-08-21T17:06:06;17.50;99.90
18175;DHT22;9212;50.894;16.714;2022-08-21T17:08:35;17.30;99.90
18175;DHT22;9212;50.894;16.714;2022-08-21T17:11:03;17.40;99.90
18175;DHT22;9212;50.894;16.714;2022-08-21T17:13:33;17.30;99.90
18175;DHT22;9212;50.894;16.714;2022-08-21T17:16:00;17.30;99.90
18175;DHT22;9212;50.894;16.714;2022-08-21T17:23:22;17.00;99.90
18175;DHT22;9212;50.894;16.714;2022-08-21T17:25:52;17.20;99.90
18175;DHT22;9212;50.894;16.714;2022-08-21T17:28:23;17.30;99.90
18175;DHT22;9212;50.894;16.714;2022-08-21T17:30:54;17.00;99.90
18175;DHT22;9212;50.894;16.714;2022-08-21T17:33:26;17.10;99.90
18175;DHT22;9212;50.894;16.714;2022-08-21T17:40:54;16.70;99.90
18175;DHT22;9212;50.894;16.714;2022-08-21T17:43:22;16.60;99.90
18175;DHT22;9212;50.894;16.714;2022-08-21T17:45:51;16.60;99.90
18175;DHT22;9212;50.894;16.714;2022-08-21T17:48:21;16.70;99.90
18175;DHT22;9212;50.894;16.714;2022-08-21T17:58:12;16.70;99.90
18175;DHT22;9212;50.894;16.714;2022-08-21T18:00:41;16.70;99.90
18175;DHT22;9212;50.894;16.714;2022-08-21T18:03:12;16.70;99.90
18175;DHT22;9212;50.894;16.714;2022-08-21T18:05:41;16.80;99.90
18175;DHT22;9212;50.894;16.714;2022-08-21T18:08:08;16.80;99.90
18175;DHT22;9212;50.894;16.714;2022-08-21T18:13:05;16.60;99.90
18175;DHT22;9212;50.894;16.714;2022-08-21T18:18:00;16.90;99.90
18175;DHT22;9212;50.894;16.714;2022-08-21T18:20:29;16.70;99.90
18175;DHT22;9212;50.894;16.714;2022-08-21T18:25:24;16.60;99.90
18175;DHT22;9212;50.894;16.714;2022-08-21T18:30:21;16.60;99.90
18175;DHT22;9212;50.894;16.714;2022-08-21T18:32:49;16.70;99.90
18175;DHT22;9212;50.894;16.714;2022-08-21T18:35:18;16.70;99.90
18175;DHT22;9212;50.894;16.714;2022-08-21T18:37:46;16.70;99.90
18175;DHT22;9212;50.894;16.714;2022-08-21T18:40:16;16.50;99.90
18175;DHT22;9212;50.894;16.714;2022-08-21T18:42:44;16.60;99.90
18175;DHT22;9212;50.894;16.714;2022-08-21T18:45:15;16.70;99.90
18175;DHT22;9212;50.894;16.714;2022-08-21T18:47:47;17.10;99.90
18175;DHT22;9212;50.894;16.714;2022-08-21T18:50:16;16.70;99.90
18175;DHT22;9212;50.894;16.714;2022-08-21T18:55:14;16.50;99.90
18175;DHT22;9212;50.894;16.714;2022-08-21T19:00:15;16.50;99.90
18175;DHT22;9212;50.894;16.714;2022-08-21T19:02:45;16.50;99.90
18175;DHT22;9212;50.894;16.714;2022-08-21T19:05:17;15.50;99.90
18175;DHT22;9212;50.894;16.714;2022-08-21T19:07:46;16.40;99.90
18175;DHT22;9212;50.894;16.714;2022-08-21T19:10:18;16.50;99.90
18175;DHT22;9212;50.894;16.714;2022-08-21T19:12:52;16.60;99.90
18175;DHT22;9212;50.894;16.714;2022-08-21T19:15:20;16.60;99.90
18175;DHT22;9212;50.894;16.714;2022-08-21T19:17:49;16.50;99.90
18175;DHT22;9212;50.894;16.714;2022-08-21T19:20:24;16.50;99.90
18175;DHT22;9212;50.894;16.714;2022-08-21T19:22:51;16.50;99.90
18175;DHT22;9212;50.894;16.714;2022-08-21T19:25:22;16.60;99.90
18175;DHT22;9212;50.894;16.714;2022-08-21T19:27:49;16.70;99.90
18175;DHT22;9212;50.894;16.714;2022-08-21T19:30:16;16.40;99.90
18175;DHT22;9212;50.894;16.714;2022-08-21T19:32:45;16.70;99.90
18175;DHT22;9212;50.894;16.714;2022-08-21T19:35:13;16.60;99.90
18175;DHT22;9212;50.894;16.714;2022-08-21T19:40:10;16.50;99.90
18175;DHT22;9212;50.894;16.714;2022-08-21T19:42:40;16.50;99.90
18175;DHT22;9212;50.894;16.714;2022-08-21T19:45:08;16.70;99.90
18175;DHT22;9212;50.894;16.714;2022-08-21T19:47:39;16.50;99.90
18175;DHT22;9212;50.894;16.714;2022-08-21T19:50:08;16.80;99.90
18175;DHT22;9212;50.894;16.714;2022-08-21T19:52:35;16.70;99.90
18175;DHT22;9212;50.894;16.714;2022-08-21T19:55:03;16.40;99.90
18175;DHT22;9212;50.894;16.714;2022-08-21T19:57:30;16.40;99.90
18175;DHT22;9212;50.894;16.714;2022-08-21T20:00:03;16.50;99.90
18175;DHT22;9212;50.894;16.714;2022-08-21T20:09:56;16.50;99.90
18175;DHT22;9212;50.894;16.714;2022-08-21T20:12:23;16.30;99.90
18175;DHT22;9212;50.894;16.714;2022-08-21T20:14:51;16.40;99.90
18175;DHT22;9212;50.894;16.714;2022-08-21T20:22:18;16.10;99.90
18175;DHT22;9212;50.894;16.714;2022-08-21T20:27:18;16.20;99.90
18175;DHT22;9212;50.894;16.714;2022-08-21T20:32:13;16.00;99.90
18175;DHT22;9212;50.894;16.714;2022-08-21T20:37:10;16.00;99.90
18175;DHT22;9212;50.894;16.714;2022-08-21T20:39:37;16.10;99.90
18175;DHT22;9212;50.894;16.714;2022-08-21T20:42:08;16.30;99.90
18175;DHT22;9212;50.894;16.714;2022-08-21T20:44:36;16.00;99.90
18175;DHT22;9212;50.894;16.714;2022-08-21T20:47:04;16.00;99.90
18175;DHT22;9212;50.894;16.714;2022-08-21T20:49:34;16.00;99.90
18175;DHT22;9212;50.894;16.714;2022-08-21T20:52:10;15.80;99.90
18175;DHT22;9212;50.894;16.714;2022-08-21T20:54:41;15.90;99.90
18175;DHT22;9212;50.894;16.714;2022-08-21T20:57:14;16.10;99.90
18175;DHT22;9212;50.894;16.714;2022-08-21T20:59:47;15.80;99.90
18175;DHT22;9212;50.894;16.714;2022-08-21T21:02:30;16.00;99.90
18175;DHT22;9212;50.894;16.714;2022-08-21T21:05:03;16.00;99.90
18175;DHT22;9212;50.894;16.714;2022-08-21T21:07:37;15.90;99.90
18175;DHT22;9212;50.894;16.714;2022-08-21T21:10:09;15.60;99.90
18175;DHT22;9212;50.894;16.714;2022-08-21T21:12:41;15.80;99.90
18175;DHT22;9212;50.894;16.714;2022-08-21T21:15:14;16.00;99.90
18175;DHT22;9212;50.894;16.714;2022-08-21T21:17:49;15.80;99.90
18175;DHT22;9212;50.894;16.714;2022-08-21T21:20:32;15.80;99.90
18175;DHT22;9212;50.894;16.714;2022-08-21T21:23:09;15.90;99.90
18175;DHT22;9212;50.894;16.714;2022-08-21T21:25:44;15.70;99.90
18175;DHT22;9212;50.894;16.714;2022-08-21T21:28:16;16.00;99.90
18175;DHT22;9212;50.894;16.714;2022-08-21T21:30:46;15.80;99.90
18175;DHT22;9212;50.894;16.714;2022-08-21T21:33:13;15.80;99.90
18175;DHT22;9212;50.894;16.714;2022-08-21T21:35:44;15.70;99.90
18175;DHT22;9212;50.894;16.714;2022-08-21T21:38:22;15.80;99.90
18175;DHT22;9212;50.894;16.714;2022-08-21T21:41:02;15.60;99.90
18175;DHT22;9212;50.894;16.714;2022-08-21T21:43:46;15.80;99.90
18175;DHT22;9212;50.894;16.714;2022-08-21T21:46:25;15.80;99.90
18175;DHT22;9212;50.894;16.714;2022-08-21T21:49:08;17.10;99.90
18175;DHT22;9212;50.894;16.714;2022-08-21T21:51:50;15.70;99.90
18175;DHT22;9212;50.894;16.714;2022-08-21T21:57:20;15.70;99.90
18175;DHT22;9212;50.894;16.714;2022-08-21T21:59:58;15.60;99.90
18175;DHT22;9212;50.894;16.714;2022-08-21T22:02:36;15.70;99.90
18175;DHT22;9212;50.894;16.714;2022-08-21T22:05:11;15.80;99.90
18175;DHT22;9212;50.894;16.714;2022-08-21T22:07:47;15.50;99.90
18175;DHT22;9212;50.894;16.714;2022-08-21T22:10:26;16.00;99.90
18175;DHT22;9212;50.894;16.714;2022-08-21T22:13:01;15.60;99.90
18175;DHT22;9212;50.894;16.714;2022-08-21T22:18:02;15.60;99.90